sensor_id;sensor_type;location;lat;lon;timestamp;pressure;altitude;pressure_sealevel;temperature;humidity
50087;BME280;35967;50.718;7.050;2022-07-05T00:04:37;101188.31;;;21.38;48.45
50087;BME280;35967;50.718;7.050;2022-07-05T00:14:40;101187.59;;;21.51;48.08
50087;BME280;35967;50.718;7.050;2022-07-05T00:24:43;101196.06;;;21.40;48.70
50087;BME280;35967;50.718;7.050;2022-07-05T00:34:46;101215.31;;;20.46;52.37
50087;BME280;35967;50.718;7.050;2022-07-05T00:44:48;101209.19;;;19.80;54.02
50087;BME280;35967;50.718;7.050;2022-07-05T00:54:50;101211.13;;;19.76;54.89
50087;BME280;35967;50.718;7.050;2022-07-05T01:04:52;101207.78;;;19.74;55.90
50087;BME280;35967;50.718;7.050;2022-07-05T01:14:54;101221.22;;;19.49;56.83
50087;BME280;35967;50.718;7.050;2022-07-05T01:24:56;101223.47;;;19.39;57.70
50087;BME280;35967;50.718;7.050;2022-07-05T01:34:59;101229.88;;;18.97;59.17
50087;BME280;35967;50.718;7.050;2022-07-05T01:45:00;101223.69;;;19.34;58.23
50087;BME280;35967;50.718;7.050;2022-07-05T01:55:03;101224.59;;;19.16;58.70
50087;BME280;35967;50.718;7.050;2022-07-05T02:05:05;101220.69;;;18.51;61.44
50087;BME280;35967;50.718;7.050;2022-07-05T02:15:08;101233.72;;;18.51;61.47
50087;BME280;35967;50.718;7.050;2022-07-05T02:25:10;101225.19;;;18.67;61.21
50087;BME280;35967;50.718;7.050;2022-07-05T02:35:12;101234.97;;;19.00;59.99
50087;BME280;35967;50.718;7.050;2022-07-05T02:45:15;101229.97;;;18.95;60.06
50087;BME280;35967;50.718;7.050;2022-07-05T02:55:20;101229.56;;;19.03;59.41
50087;BME280;35967;50.718;7.050;2022-07-05T03:05:23;101233.34;;;18.78;60.29
50087;BME280;35967;50.718;7.050;2022-07-05T03:15:33;101231.59;;;19.15;59.25
50087;BME280;35967;50.718;7.050;2022-07-05T03:25:36;101234.28;;;18.39;61.73
50087;BME280;35967;50.718;7.050;2022-07-05T03:35:40;101246.56;;;17.97;63.35
50087;BME280;35967;50.718;7.050;2022-07-05T03:45:42;101246.56;;;18.37;62.16
50087;BME280;35967;50.718;7.050;2022-07-05T03:55:44;101249.78;;;18.23;62.83
50087;BME280;35967;50.718;7.050;2022-07-05T04:05:48;101253.56;;;18.16;63.15
50087;BME280;35967;50.718;7.050;2022-07-05T04:15:50;101270.56;;;17.83;64.43
50087;BME280;35967;50.718;7.050;2022-07-05T04:25:52;101270.25;;;17.91;64.30
50087;BME280;35967;50.718;7.050;2022-07-05T04:36:04;101277.16;;;18.32;63.73
50087;BME280;35967;50.718;7.050;2022-07-05T04:46:06;101286.66;;;18.13;63.93
50087;BME280;35967;50.718;7.050;2022-07-05T04:56:09;101287.97;;;18.24;64.75
50087;BME280;35967;50.718;7.050;2022-07-05T05:06:11;101295.50;;;18.49;63.61
50087;BME280;35967;50.718;7.050;2022-07-05T05:16:14;101291.41;;;19.20;62.04
50087;BME280;35967;50.718;7.050;2022-07-05T05:26:16;101295.25;;;19.48;61.16
50087;BME280;35967;50.718;7.050;2022-07-05T05:36:18;101302.41;;;19.62;59.83
50087;BME280;35967;50.718;7.050;2022-07-05T05:46:20;101318.09;;;19.79;60.73
50087;BME280;35967;50.718;7.050;2022-07-05T05:56:22;101318.06;;;19.44;60.67
50087;BME280;35967;50.718;7.050;2022-07-05T06:06:23;101314.19;;;20.55;58.44
50087;BME280;35967;50.718;7.050;2022-07-05T06:16:25;101331.47;;;20.75;57.53
50087;BME280;35967;50.718;7.050;2022-07-05T06:26:27;101335.03;;;20.90;57.28
50087;BME280;35967;50.718;7.050;2022-07-05T06:36:29;101337.69;;;21.37;55.03
50087;BME280;35967;50.718;7.050;2022-07-05T06:46:31;101333.16;;;21.08;56.01
50087;BME280;35967;50.718;7.050;2022-07-05T06:56:32;101336.91;;;21.81;53.48
50087;BME280;35967;50.718;7.050;2022-07-05T07:06:54;101348.91;;;22.45;51.93
50087;BME280;35967;50.718;7.050;2022-07-05T07:16:56;101356.25;;;22.38;53.10
50087;BME280;35967;50.718;7.050;2022-07-05T07:26:58;101343.69;;;23.14;50.39
50087;BME280;35967;50.718;7.050;2022-07-05T07:37:06;101355.50;;;23.21;50.26
50087;BME280;35967;50.718;7.050;2022-07-05T07:47:10;101351.19;;;23.47;48.61
50087;BME280;35967;50.718;7.050;2022-07-05T07:57:12;101358.44;;;23.44;49.18
50087;BME280;35967;50.718;7.050;2022-07-05T08:07:14;101358.09;;;23.89;48.31
50087;BME280;35967;50.718;7.050;2022-07-05T08:17:16;101355.41;;;24.29;47.13
50087;BME280;35967;50.718;7.050;2022-07-05T08:27:18;101353.00;;;24.13;46.79
50087;BME280;35967;50.718;7.050;2022-07-05T08:37:20;101345.56;;;23.92;46.35
50087;BME280;35967;50.718;7.050;2022-07-05T08:47:22;101349.66;;;24.74;44.93
50087;BME280;35967;50.718;7.050;2022-07-05T08:57:23;101343.00;;;24.18;44.27
50087;BME280;35967;50.718;7.050;2022-07-05T09:07:26;101340.16;;;25.09;42.98
50087;BME280;35967;50.718;7.050;2022-07-05T09:17:30;101347.41;;;25.18;41.41
50087;BME280;35967;50.718;7.050;2022-07-05T09:27:32;101343.38;;;25.01;40.50
50087;BME280;35967;50.718;7.050;2022-07-05T09:37:43;101342.97;;;24.94;41.76
50087;BME280;35967;50.718;7.050;2022-07-05T09:47:49;101336.97;;;25.41;41.31
50087;BME280;35967;50.718;7.050;2022-07-05T09:58:12;101343.53;;;25.35;39.39
50087;BME280;35967;50.718;7.050;2022-07-05T10:08:15;101340.13;;;25.81;39.23
50087;BME280;35967;50.718;7.050;2022-07-05T10:18:22;101351.13;;;25.87;35.97
50087;BME280;35967;50.718;7.050;2022-07-05T10:28:33;101347.38;;;25.55;37.66
50087;BME280;35967;50.718;7.050;2022-07-05T10:38:35;101340.53;;;26.34;35.98
50087;BME280;35967;50.718;7.050;2022-07-05T10:48:39;101327.06;;;26.82;33.41
50087;BME280;35967;50.718;7.050;2022-07-05T10:58:43;101334.63;;;26.64;35.91
50087;BME280;35967;50.718;7.050;2022-07-05T11:29:45;101314.72;;;27.15;33.38
50087;BME280;35967;50.718;7.050;2022-07-05T11:50:11;101309.00;;;26.99;33.44
50087;BME280;35967;50.718;7.050;2022-07-05T12:00:28;101298.09;;;27.88;32.55
50087;BME280;35967;50.718;7.050;2022-07-05T12:10:30;101287.19;;;27.81;31.68
50087;BME280;35967;50.718;7.050;2022-07-05T12:21:02;101283.75;;;27.06;32.44
50087;BME280;35967;50.718;7.050;2022-07-05T12:31:19;101277.28;;;27.52;33.41
50087;BME280;35967;50.718;7.050;2022-07-05T12:41:22;101272.63;;;27.97;33.16
50087;BME280;35967;50.718;7.050;2022-07-05T12:51:35;101272.38;;;28.00;31.87
50087;BME280;35967;50.718;7.050;2022-07-05T13:01:42;101265.38;;;28.20;31.60
50087;BME280;35967;50.718;7.050;2022-07-05T13:11:44;101276.28;;;28.06;31.53
50087;BME280;35967;50.718;7.050;2022-07-05T13:21:46;101276.13;;;27.97;31.42
50087;BME280;35967;50.718;7.050;2022-07-05T13:31:48;101280.25;;;27.59;31.76
50087;BME280;35967;50.718;7.050;2022-07-05T13:41:54;101279.09;;;26.98;33.24
50087;BME280;35967;50.718;7.050;2022-07-05T13:51:56;101292.19;;;27.21;33.54
50087;BME280;35967;50.718;7.050;2022-07-05T14:01:59;101287.56;;;27.13;32.96
50087;BME280;35967;50.718;7.050;2022-07-05T14:12:01;101282.03;;;26.84;32.38
50087;BME280;35967;50.718;7.050;2022-07-05T14:22:03;101277.91;;;27.23;31.96
50087;BME280;35967;50.718;7.050;2022-07-05T14:32:05;101283.94;;;26.82;31.18
50087;BME280;35967;50.718;7.050;2022-07-05T14:42:07;101284.94;;;26.58;32.15
50087;BME280;35967;50.718;7.050;2022-07-05T14:52:09;101278.97;;;26.56;33.67
50087;BME280;35967;50.718;7.050;2022-07-05T15:02:11;101261.03;;;26.71;32.54
50087;BME280;35967;50.718;7.050;2022-07-05T15:12:13;101259.41;;;26.58;33.35
50087;BME280;35967;50.718;7.050;2022-07-05T15:22:15;101237.84;;;26.74;32.57
50087;BME280;35967;50.718;7.050;2022-07-05T15:32:17;101244.22;;;26.83;32.60
50087;BME280;35967;50.718;7.050;2022-07-05T15:42:19;101249.88;;;26.67;32.31
50087;BME280;35967;50.718;7.050;2022-07-05T15:52:21;101226.03;;;26.90;32.10
50087;BME280;35967;50.718;7.050;2022-07-05T16:02:26;101233.34;;;26.98;31.24
50087;BME280;35967;50.718;7.050;2022-07-05T16:12:28;101230.66;;;26.76;31.83
50087;BME280;35967;50.718;7.050;2022-07-05T16:22:30;101226.34;;;26.64;32.35
50087;BME280;35967;50.718;7.050;2022-07-05T16:32:32;101230.06;;;26.61;32.33
50087;BME280;35967;50.718;7.050;2022-07-05T16:42:33;101235.50;;;26.49;32.42
50087;BME280;35967;50.718;7.050;2022-07-05T16:52:35;101237.97;;;26.29;32.81
50087;BME280;35967;50.718;7.050;2022-07-05T17:02:39;101229.09;;;26.19;33.08
50087;BME280;35967;50.718;7.050;2022-07-05T17:12:41;101243.25;;;25.72;33.96
50087;BME280;35967;50.718;7.050;2022-07-05T17:22:43;101255.94;;;25.67;37.78
50087;BME280;35967;50.718;7.050;2022-07-05T17:32:46;101268.50;;;25.16;39.13
50087;BME280;35967;50.718;7.050;2022-07-05T17:42:47;101291.53;;;24.77;39.77
50087;BME280;35967;50.718;7.050;2022-07-05T17:52:49;101292.88;;;24.83;40.26
50087;BME280;35967;50.718;7.050;2022-07-05T18:02:51;101299.91;;;24.58;40.38
50087;BME280;35967;50.718;7.050;2022-07-05T18:12:54;101310.41;;;24.58;40.12
50087;BME280;35967;50.718;7.050;2022-07-05T18:22:56;101324.75;;;24.41;40.78
50087;BME280;35967;50.718;7.050;2022-07-05T18:32:58;101334.34;;;24.16;41.49
50087;BME280;35967;50.718;7.050;2022-07-05T18:42:59;101339.31;;;24.08;42.62
50087;BME280;35967;50.718;7.050;2022-07-05T18:53:01;101351.19;;;24.01;42.28
50087;BME280;35967;50.718;7.050;2022-07-05T19:03:03;101367.00;;;23.73;42.95
50087;BME280;35967;50.718;7.050;2022-07-05T19:13:04;101370.97;;;23.53;43.48
50087;BME280;35967;50.718;7.050;2022-07-05T19:23:25;101385.94;;;23.11;43.43
50087;BME280;35967;50.718;7.050;2022-07-05T19:33:31;101407.00;;;23.24;43.09
50087;BME280;35967;50.718;7.050;2022-07-05T19:43:33;101414.50;;;23.57;49.94
50087;BME280;35967;50.718;7.050;2022-07-05T19:53:34;101427.56;;;23.17;42.73
50087;BME280;35967;50.718;7.050;2022-07-05T20:03:36;101442.41;;;22.89;42.34
50087;BME280;35967;50.718;7.050;2022-07-05T20:13:38;101461.63;;;22.90;42.35
50087;BME280;35967;50.718;7.050;2022-07-05T20:23:40;101473.13;;;22.58;43.34
50087;BME280;35967;50.718;7.050;2022-07-05T20:33:42;101477.34;;;22.61;43.26
50087;BME280;35967;50.718;7.050;2022-07-05T20:43:45;101487.41;;;22.54;43.40
50087;BME280;35967;50.718;7.050;2022-07-05T20:53:47;101487.84;;;22.46;43.18
50087;BME280;35967;50.718;7.050;2022-07-05T21:03:50;101495.00;;;22.12;43.80
50087;BME280;35967;50.718;7.050;2022-07-05T21:13:52;101510.34;;;22.04;44.16
50087;BME280;35967;50.718;7.050;2022-07-05T21:23:54;101531.34;;;21.88;43.96
50087;BME280;35967;50.718;7.050;2022-07-05T21:33:56;101537.16;;;21.93;44.12
50087;BME280;35967;50.718;7.050;2022-07-05T21:43:59;101555.94;;;21.69;43.93
50087;BME280;35967;50.718;7.050;2022-07-05T21:54:02;101558.41;;;21.72;44.13
50087;BME280;35967;50.718;7.050;2022-07-05T22:04:04;101563.09;;;21.50;44.32
50087;BME280;35967;50.718;7.050;2022-07-05T22:14:25;101583.44;;;21.44;44.19
50087;BME280;35967;50.718;7.050;2022-07-05T22:24:26;101597.47;;;21.43;44.48
50087;BME280;35967;50.718;7.050;2022-07-05T22:44:30;101612.44;;;20.90;46.08
50087;BME280;35967;50.718;7.050;2022-07-05T22:54:32;101608.41;;;20.83;47.10
50087;BME280;35967;50.718;7.050;2022-07-05T23:04:34;101611.25;;;20.61;48.16
50087;BME280;35967;50.718;7.050;2022-07-05T23:14:36;101617.69;;;20.54;47.98
50087;BME280;35967;50.718;7.050;2022-07-05T23:24:37;101615.56;;;20.62;47.51
50087;BME280;35967;50.718;7.050;2022-07-05T23:34:57;101618.66;;;20.33;48.43
50087;BME280;35967;50.718;7.050;2022-07-05T23:45:01;101624.25;;;20.26;48.07
50087;BME280;35967;50.718;7.050;2022-07-05T23:55:04;101625.19;;;20.06;49.26
